Time;durP1;ratioP1;P1;durP2;ratioP2;P2;SDS_P1;SDS_P2;PMS_P1;PMS_P2;Temp;Humidity;BMP_temperature;BMP_pressure;BME280_temperature;BME280_humidity;BME280_pressure;Samples;Min_cycle;Max_cycle;Signal;HPM_P1;HPM_P2
2023/02/11 00:01:25;;;;;;;100.30;46.53;;;26.10;2201.60;;;;;;5049633;28;20037;-79
2023/02/11 00:03:51;;;;;;;98.88;43.08;;;26.20;2201.60;;;;;;5038458;28;20073;-81
2023/02/11 00:06:17;;;;;;;;;;;26.20;2201.60;;;;;;5046014;28;20032;-81
2023/02/11 00:08:42;;;;;;;113.70;48.20;;;26.10;2201.60;;;;;;5053860;28;20003;-81
2023/02/11 00:11:11;;;;;;;;;;;26.10;2201.60;;;;;;5043024;28;20029;-82
2023/02/11 00:13:37;;;;;;;104.40;46.20;;;26.10;2201.60;;;;;;5056586;28;19961;-82
2023/02/11 00:16:07;;;;;;;;;;;26.10;2201.60;;;;;;5035131;28;20037;-82
2023/02/11 00:18:32;;;;;;;115.93;47.10;;;26.10;2201.60;;;;;;5051088;28;19913;-81
2023/02/11 00:20:58;;;;;;;;;;;26.10;2201.60;;;;;;5034069;28;20121;-82
2023/02/11 00:23:23;;;;;;;105.97;44.95;;;26.00;2201.60;;;;;;5034050;28;20373;-82
2023/02/11 00:25:49;;;;;;;;;;;25.90;2201.60;;;;;;5042672;28;20546;-81
2023/02/11 00:28:15;;;;;;;120.80;52.03;;;26.00;2201.60;;;;;;5056595;28;19905;-82
2023/02/11 00:30:40;;;;;;;;;;;26.00;2201.60;;;;;;5038362;28;20047;-80
2023/02/11 00:33:06;;;;;;;113.78;50.70;;;25.90;2201.60;;;;;;5047339;28;19904;-81
2023/02/11 00:35:32;;;;;;;;;;;26.00;2201.60;;;;;;5047650;28;20367;-81
2023/02/11 00:37:57;;;;;;;108.55;48.75;;;25.90;2201.60;;;;;;5044122;28;20346;-81
2023/02/11 00:40:23;;;;;;;;;;;25.80;2201.60;;;;;;5038316;28;20045;-82
2023/02/11 00:42:49;;;;;;;113.75;49.15;;;25.80;2201.60;;;;;;5047950;28;19919;-81
2023/02/11 00:45:14;;;;;;;;;;;25.70;2201.60;;;;;;5037674;28;20375;-81
2023/02/11 00:47:40;;;;;;;107.10;48.38;;;0.90;2201.60;;;;;;5029786;28;19912;-81
2023/02/11 00:50:07;;;;;;;;;;;25.60;2201.60;;;;;;5042156;28;20056;-82
2023/02/11 00:52:33;;;;;;;89.38;40.33;;;25.60;2201.60;;;;;;5066613;28;19905;-82
2023/02/11 00:54:59;;;;;;;112.22;50.90;;;25.60;2201.60;;;;;;5038096;28;20028;-81
2023/02/11 00:57:25;;;;;;;;;;;25.60;2201.60;;;;;;5037535;28;20029;-82
2023/02/11 00:59:50;;;;;;;105.82;46.58;;;25.70;2201.60;;;;;;5037146;28;19913;-82
2023/02/11 01:02:16;;;;;;;;;;;25.70;2201.60;;;;;;5037345;28;20116;-82
2023/02/11 01:04:42;;;;;;;107.57;48.00;;;25.70;2201.60;;;;;;5037064;28;20054;-81
2023/02/11 01:07:08;;;;;;;;;;;25.70;2201.60;;;;;;5043609;28;20056;-82
2023/02/11 01:09:36;;;;;;;102.72;44.88;;;25.60;2201.60;;;;;;5039228;28;19963;-82
2023/02/11 01:12:02;;;;;;;108.97;50.03;;;0.90;2201.60;;;;;;5053245;28;20035;-82
2023/02/11 01:14:28;;;;;;;;;;;25.60;2201.60;;;;;;5039695;28;20021;-82
2023/02/11 01:16:53;;;;;;;118.00;44.55;;;25.60;2201.60;;;;;;5043870;28;20000;-82
2023/02/11 01:19:19;;;;;;;;;;;25.60;2201.60;;;;;;5053175;28;20070;-81
2023/02/11 01:21:44;;;;;;;100.88;44.28;;;25.70;2201.60;;;;;;5046720;28;19938;-82
2023/02/11 01:24:10;;;;;;;;;;;25.60;2201.60;;;;;;5023821;28;20041;-81
2023/02/11 01:26:36;;;;;;;108.47;45.13;;;25.60;2201.60;;;;;;5046088;28;20365;-82
2023/02/11 01:29:01;;;;;;;;;;;25.60;2201.60;;;;;;5037503;28;20493;-81
2023/02/11 01:31:28;;;;;;;102.22;43.95;;;25.70;2201.60;;;;;;5056286;28;20001;-82
2023/02/11 01:33:54;;;;;;;96.97;44.15;;;25.70;2201.60;;;;;;5042863;28;20108;-82
2023/02/11 01:36:20;;;;;;;;;;;25.60;2201.60;;;;;;5056788;28;20122;-82
2023/02/11 01:38:45;;;;;;;88.35;42.25;;;25.60;2201.60;;;;;;5056227;28;19915;-82
2023/02/11 01:41:12;;;;;;;;;;;25.60;2201.60;;;;;;5046810;28;20072;-81
2023/02/11 01:43:43;;;;;;;89.97;42.63;;;25.60;2201.60;;;;;;5042956;28;19908;-81
2023/02/11 01:46:47;;;;;;;97.70;44.40;;;0.90;2201.60;;;;;;5055998;28;20040;-82
2023/02/11 01:49:29;;;;;;;94.60;43.40;;;0.90;2201.60;;;;;;4976415;28;20031;-81
2023/02/11 01:52:00;;;;;;;89.43;41.83;;;0.90;2201.60;;;;;;4950088;29;20564;-82
2023/02/11 01:57:22;;;;;;;86.00;40.08;;;25.60;2201.60;;;;;;4976508;28;20062;-81
2023/02/11 02:00:23;;;;;;;89.53;39.15;;;25.60;2201.60;;;;;;4959988;28;20495;-81
2023/02/11 02:03:09;;;;;;;85.75;40.63;;;25.60;2201.60;;;;;;4976253;28;20031;-83
2023/02/11 02:05:47;;;;;;;81.22;40.08;;;25.60;2201.60;;;;;;4946980;28;20471;-79
2023/02/11 02:08:28;;;;;;;94.53;40.50;;;0.90;2201.60;;;;;;4967335;28;20027;-79
2023/02/11 02:10:55;;;;;;;87.43;39.22;;;0.90;2201.60;;;;;;4972514;28;20031;-80
2023/02/11 02:13:24;;;;;;;84.50;40.20;;;0.80;2201.60;;;;;;4959761;28;20047;-80
2023/02/11 02:15:59;;;;;;;97.15;41.08;;;0.40;2201.60;;;;;;4976284;28;20103;-80
2023/02/11 02:18:37;;;;;;;86.07;35.90;;;0.00;2201.60;;;;;;4947039;28;20413;-81
2023/02/11 02:21:03;;;;;;;80.80;34.10;;;13.10;2201.60;;;;;;4959992;28;20027;-81
2023/02/11 02:23:34;;;;;;;;;;;13.10;2201.60;;;;;;4973268;28;20019;-80
2023/02/11 02:26:20;;;;;;;72.15;33.33;;;13.10;2201.60;;;;;;5014764;28;20381;-80
2023/02/11 02:28:52;;;;;;;81.05;32.38;;;13.20;2201.60;;;;;;5028484;28;20032;-80
2023/02/11 02:31:46;;;;;;;76.40;33.20;;;13.10;2201.60;;;;;;5054936;28;20112;-80
2023/02/11 02:34:40;;;;;;;73.82;34.95;;;13.40;2201.60;;;;;;5046958;28;20033;-80
2023/02/11 02:37:16;;;;;;;86.07;36.38;;;13.50;2201.60;;;;;;5030039;28;20361;-79
2023/02/11 02:39:47;;;;;;;82.47;37.03;;;13.60;2201.60;;;;;;5048150;28;20128;-81
2023/02/11 02:42:13;;;;;;;80.15;35.95;;;38.40;2201.60;;;;;;5053593;28;20060;-81
2023/02/11 02:44:39;;;;;;;96.57;40.33;;;13.60;2201.60;;;;;;5040976;28;20061;-81
2023/02/11 02:47:05;;;;;;;81.18;35.95;;;13.30;2201.60;;;;;;5045572;28;20039;-81
2023/02/11 02:49:30;;;;;;;;;;;13.50;2201.60;;;;;;5041415;28;20475;-81
2023/02/11 02:52:08;;;;;;;85.45;37.22;;;13.40;2201.60;;;;;;5054468;28;19991;-81
2023/02/11 02:55:01;;;;;;;88.97;36.83;;;13.20;2201.60;;;;;;5041193;28;20501;-80
2023/02/11 02:58:04;;;;;;;88.70;38.53;;;13.10;2201.60;;;;;;5054014;28;20040;-81
2023/02/11 03:00:55;;;;;;;81.35;35.67;;;13.10;2201.60;;;;;;4979962;28;20071;-81
2023/02/11 03:03:29;;;;;;;90.55;39.75;;;12.90;2201.60;;;;;;4960259;28;20042;-79
2023/02/11 03:06:09;;;;;;;80.35;37.90;;;12.90;2201.60;;;;;;4994072;28;20566;-80
2023/02/11 03:08:42;;;;;;;78.00;35.78;;;12.90;2201.60;;;;;;4977356;28;20056;-80
2023/02/11 03:11:09;;;;;;;88.03;36.70;;;12.90;2201.60;;;;;;4993960;28;20038;-80
2023/02/11 03:13:38;;;;;;;81.22;36.92;;;12.90;2201.60;;;;;;4980731;28;20070;-80
2023/02/11 03:16:27;;;;;;;88.90;36.83;;;13.00;2201.60;;;;;;4994011;28;20042;-80
2023/02/11 03:19:02;;;;;;;72.70;35.92;;;13.10;2201.60;;;;;;4902853;29;20032;-81
2023/02/11 03:21:31;;;;;;;85.88;38.15;;;13.30;2201.60;;;;;;4901407;29;20123;-80
2023/02/11 03:24:02;;;;;;;88.70;39.88;;;13.30;2201.60;;;;;;4908244;29;20086;-82
2023/02/11 03:26:33;;;;;;;80.82;36.38;;;13.40;2201.60;;;;;;4907256;29;20028;-82
2023/02/11 03:29:15;;;;;;;87.53;37.85;;;13.40;2201.60;;;;;;4912252;29;20482;-82
2023/02/11 03:31:46;;;;;;;79.40;35.42;;;13.40;2201.60;;;;;;4942482;28;20026;-82
2023/02/11 03:34:17;;;;;;;91.13;38.70;;;13.40;2201.60;;;;;;4969036;28;20023;-82
2023/02/11 03:37:08;;;;;;;87.80;37.17;;;13.40;2201.60;;;;;;4973997;28;20534;-82
2023/02/11 03:40:14;;;;;;;93.45;40.25;;;13.50;2201.60;;;;;;4964726;28;20058;-82
2023/02/11 03:42:58;;;;;;;88.30;38.60;;;13.50;2201.60;;;;;;4901316;29;20048;-81
2023/02/11 03:45:26;;;;;;;97.05;40.22;;;13.50;2201.60;;;;;;4889732;29;20489;-80
2023/02/11 03:48:20;;;;;;;83.95;37.88;;;13.50;2201.60;;;;;;4900910;29;20060;-81
2023/02/11 03:50:47;;;;;;;82.38;37.58;;;13.60;2201.60;;;;;;4878968;29;20033;-82
2023/02/11 03:53:14;;;;;;;87.22;37.00;;;38.50;2201.60;;;;;;4863584;29;20526;-81
2023/02/11 03:55:41;;;;;;;89.03;36.60;;;38.40;2201.60;;;;;;4871615;29;20103;-81
2023/02/11 03:58:07;;;;;;;85.43;38.05;;;38.40;2201.60;;;;;;4897970;29;20067;-82
2023/02/11 04:00:35;;;;;;;;;;;38.50;2201.60;;;;;;4882545;29;20064;-81
2023/02/11 04:03:01;;;;;;;83.97;33.40;;;38.60;2201.60;;;;;;4882361;29;20446;-82
2023/02/11 04:05:27;;;;;;;71.93;32.85;;;38.70;2201.60;;;;;;4881882;29;20088;-81
2023/02/11 04:07:53;;;;;;;;;;;38.80;2201.60;;;;;;4882630;29;20115;-80
2023/02/11 04:10:18;;;;;;;71.30;32.10;;;38.70;2201.60;;;;;;4881856;29;20006;-81
2023/02/11 04:12:44;;;;;;;;;;;38.60;2201.60;;;;;;4900499;28;20098;-81
2023/02/11 04:15:10;;;;;;;86.28;36.85;;;38.60;2201.60;;;;;;4971420;28;19910;-81
2023/02/11 04:17:35;;;;;;;;;;;38.50;2201.60;;;;;;4969429;28;20027;-81
2023/02/11 04:20:01;;;;;;;96.90;37.53;;;13.70;2201.60;;;;;;4969042;28;20284;-79
2023/02/11 04:22:27;;;;;;;;;;;13.70;2201.60;;;;;;4946293;28;20135;-81
2023/02/11 04:24:52;;;;;;;112.50;45.85;;;13.60;2201.60;;;;;;4945342;28;19914;-80
2023/02/11 04:27:18;;;;;;;;;;;13.60;2201.60;;;;;;5001855;28;20083;-81
2023/02/11 04:29:44;;;;;;;114.22;46.33;;;13.60;2201.60;;;;;;5046761;28;19952;-81
2023/02/11 04:32:10;;;;;;;;;;;13.50;2201.60;;;;;;5053219;28;20021;-80
2023/02/11 04:34:35;;;;;;;87.45;38.85;;;13.70;2201.60;;;;;;5052786;28;20322;-80
2023/02/11 04:37:01;;;;;;;;;;;38.40;2201.60;;;;;;5053332;28;20017;-81
2023/02/11 04:39:27;;;;;;;114.97;46.88;;;38.40;2201.60;;;;;;5052539;28;19908;-82
2023/02/11 04:41:52;;;;;;;;;;;13.70;2201.60;;;;;;5048941;28;20063;-80
2023/02/11 04:44:18;;;;;;;107.53;44.35;;;13.70;2201.60;;;;;;5036133;28;20358;-82
2023/02/11 04:46:43;;;;;;;;;;;13.70;2201.60;;;;;;5053157;28;20594;-80
2023/02/11 04:49:12;;;;;;;110.55;45.47;;;38.50;2201.60;;;;;;5041849;28;19904;-81
2023/02/11 04:51:38;;;;;;;107.22;47.47;;;38.40;2201.60;;;;;;5052813;28;20021;-81
2023/02/11 04:54:03;;;;;;;;;;;38.40;2201.60;;;;;;5053057;28;20032;-82
2023/02/11 04:56:29;;;;;;;155.00;63.03;;;13.70;2201.60;;;;;;5040453;28;19940;-82
2023/02/11 04:58:55;;;;;;;;;;;13.70;2201.60;;;;;;5052803;28;20025;-81
2023/02/11 05:01:21;;;;;;;142.30;60.78;;;13.70;2201.60;;;;;;5052774;28;19916;-81
2023/02/11 05:03:47;;;;;;;150.93;60.63;;;13.70;2201.60;;;;;;5052783;28;20036;-80
2023/02/11 05:06:12;;;;;;;;;;;13.70;2201.60;;;;;;5052647;28;20017;-80
2023/02/11 05:08:39;;;;;;;123.15;50.65;;;13.70;2201.60;;;;;;5050954;28;19912;-81
2023/02/11 05:11:06;;;;;;;126.90;54.88;;;13.70;2201.60;;;;;;5056686;28;20040;-82
2023/02/11 05:13:32;;;;;;;115.68;50.30;;;13.70;2201.60;;;;;;5056269;28;20029;-80
2023/02/11 05:15:57;;;;;;;;;;;13.60;2201.60;;;;;;5044947;28;20027;-81
2023/02/11 05:18:23;;;;;;;109.03;45.33;;;13.60;2201.60;;;;;;5055889;28;20324;-81
2023/02/11 05:20:49;;;;;;;;;;;13.50;2201.60;;;;;;5040434;28;20021;-81
2023/02/11 05:23:14;;;;;;;104.20;45.47;;;13.50;2201.60;;;;;;5050812;28;20346;-80
2023/02/11 05:25:40;;;;;;;;;;;13.60;2201.60;;;;;;5052666;28;20064;-81
2023/02/11 05:28:06;;;;;;;117.13;46.80;;;13.60;2201.60;;;;;;5025922;28;19951;-79
2023/02/11 05:30:32;;;;;;;115.25;48.28;;;13.60;2201.60;;;;;;5056187;28;20031;-80
2023/02/11 05:32:57;;;;;;;;;;;13.60;2201.60;;;;;;5044567;28;20123;-79
2023/02/11 05:35:23;;;;;;;103.72;45.22;;;13.60;2201.60;;;;;;5031908;28;19943;-80
2023/02/11 05:37:49;;;;;;;;;;;13.70;2201.60;;;;;;5056736;28;20032;-80
2023/02/11 05:40:15;;;;;;;105.90;46.20;;;13.70;2201.60;;;;;;5047776;28;20367;-81
2023/02/11 05:42:40;;;;;;;;;;;13.70;2201.60;;;;;;5037906;28;20390;-79
2023/02/11 05:45:07;;;;;;;94.82;41.55;;;13.60;2201.60;;;;;;5045619;28;19912;-80
2023/02/11 05:47:32;;;;;;;88.57;39.67;;;13.60;2201.60;;;;;;5036720;28;20021;-81
2023/02/11 05:49:58;;;;;;;;;;;13.60;2201.60;;;;;;5057127;28;20064;-79
2023/02/11 05:52:24;;;;;;;89.35;39.58;;;13.70;2201.60;;;;;;5069054;28;19909;-80
2023/02/11 05:54:50;;;;;;;;;;;13.60;2201.60;;;;;;5039778;28;20455;-80
2023/02/11 05:57:16;;;;;;;93.45;41.03;;;13.60;2201.60;;;;;;5038335;28;19905;-81
2023/02/11 05:59:41;;;;;;;;;;;13.50;2201.60;;;;;;5049700;28;20009;-80
2023/02/11 06:02:08;;;;;;;104.53;44.70;;;13.50;2201.60;;;;;;5038492;28;19912;-81
2023/02/11 06:04:34;;;;;;;128.95;53.75;;;13.40;2201.60;;;;;;5038595;28;20085;-79
2023/02/11 06:07:00;;;;;;;139.07;58.50;;;13.40;2201.60;;;;;;5055738;28;20074;-78
2023/02/11 06:09:26;;;;;;;;;;;13.40;2201.60;;;;;;5034795;28;20096;-80
2023/02/11 06:11:51;;;;;;;122.53;51.08;;;13.40;2201.60;;;;;;5038208;28;19909;-82
2023/02/11 06:14:17;;;;;;;;;;;13.20;2201.60;;;;;;5034929;28;20024;-78
2023/02/11 06:16:43;;;;;;;100.90;45.15;;;13.10;2201.60;;;;;;5037132;28;20065;-81
2023/02/11 06:19:08;;;;;;;;;;;13.10;2201.60;;;;;;5038599;28;20112;-80
2023/02/11 06:21:34;;;;;;;104.47;43.17;;;13.10;2201.60;;;;;;5038463;28;20338;-80
2023/02/11 06:24:00;;;;;;;;;;;13.20;2201.60;;;;;;5037802;28;20043;-79
2023/02/11 06:26:25;;;;;;;100.07;42.63;;;13.20;2201.60;;;;;;5035257;28;19912;-80
2023/02/11 06:28:51;;;;;;;;;;;13.20;2201.60;;;;;;5039008;28;20032;-82
2023/02/11 06:31:17;;;;;;;99.07;44.25;;;13.20;2201.60;;;;;;5055906;28;19995;-80
2023/02/11 06:33:42;;;;;;;;;;;13.10;2201.60;;;;;;5038102;28;20020;-81
2023/02/11 06:36:14;;;;;;;118.07;52.85;;;13.10;2201.60;;;;;;5038156;28;19950;-80
2023/02/11 06:38:40;;;;;;;153.23;68.80;;;13.10;2201.60;;;;;;5037770;28;20483;-79
2023/02/11 06:41:08;;;;;;;;;;;13.00;2201.60;;;;;;5055776;28;20114;-80
2023/02/11 06:43:33;;;;;;;142.88;65.30;;;12.90;2201.60;;;;;;5044520;28;19909;-81
2023/02/11 06:45:59;;;;;;;;;;;12.90;2201.60;;;;;;5034312;28;20032;-82
2023/02/11 06:48:25;;;;;;;133.77;62.97;;;13.00;2201.60;;;;;;5056989;28;20003;-82
2023/02/11 06:50:50;;;;;;;;;;;12.90;2201.60;;;;;;5051400;28;20390;-81
2023/02/11 06:53:16;;;;;;;130.68;58.78;;;12.90;2201.60;;;;;;5041997;28;19919;-81
2023/02/11 06:55:41;;;;;;;;;;;0.00;2201.60;;;;;;5038327;28;20029;-81
2023/02/11 06:58:07;;;;;;;122.18;55.92;;;0.00;2201.60;;;;;;5030846;28;20285;-79
2023/02/11 07:00:32;;;;;;;;;;;0.10;2201.60;;;;;;5041611;28;20025;-82
2023/02/11 07:02:58;;;;;;;114.00;52.33;;;0.20;2201.60;;;;;;5036752;28;19908;-80
2023/02/11 07:05:24;;;;;;;;;;;0.30;2201.60;;;;;;5054494;28;20032;-79
2023/02/11 07:07:49;;;;;;;154.90;64.03;;;0.30;2201.60;;;;;;5047002;28;19999;-80
2023/02/11 07:10:15;;;;;;;;;;;0.20;2201.60;;;;;;5043163;28;20028;-76
2023/02/11 07:12:40;;;;;;;129.85;59.55;;;0.30;2201.60;;;;;;5051842;28;19912;-82
2023/02/11 07:15:06;;;;;;;;;;;0.40;2201.60;;;;;;5028917;28;20033;-87
2023/02/11 07:17:34;;;;;;;137.43;66.00;;;0.60;2201.60;;;;;;5060478;28;20218;-83
2023/02/11 07:20:00;;;;;;;181.00;82.45;;;0.70;2201.60;;;;;;5044956;28;20017;-79
2023/02/11 07:22:25;;;;;;;;;;;0.70;2201.60;;;;;;5041730;28;20067;-82
2023/02/11 07:24:51;;;;;;;228.43;98.55;;;0.90;2201.60;;;;;;5048764;28;19916;-79
2023/02/11 07:27:17;;;;;;;;;;;25.60;2201.60;;;;;;5042482;28;20116;-83
2023/02/11 07:29:44;;;;;;;177.55;79.35;;;25.60;2201.60;;;;;;5040178;28;19905;-80
2023/02/11 07:32:10;;;;;;;252.90;107.22;;;25.70;2201.60;;;;;;5031276;28;20034;-77
2023/02/11 07:34:35;;;;;;;;;;;25.80;2201.60;;;;;;5034454;28;20046;-77
2023/02/11 07:37:01;;;;;;;192.15;89.32;;;26.00;2201.60;;;;;;5039605;28;20354;-77
2023/02/11 07:39:28;;;;;;;161.15;74.45;;;26.00;2201.60;;;;;;5063102;28;20033;-79
2023/02/11 07:41:55;;;;;;;;;;;26.10;2201.60;;;;;;5048841;28;20040;-82
2023/02/11 07:44:21;;;;;;;141.13;65.07;;;26.20;2201.60;;;;;;5030342;28;19943;-78
2023/02/11 07:46:48;;;;;;;;;;;26.20;2201.60;;;;;;5029998;28;20021;-82
2023/02/11 07:49:14;;;;;;;109.68;52.03;;;26.30;2201.60;;;;;;5046305;28;19926;-77
2023/02/11 07:51:40;;;;;;;142.65;66.82;;;26.40;2201.60;;;;;;5039772;28;20086;-74
2023/02/11 07:54:06;;;;;;;;;;;26.50;2201.60;;;;;;5066568;28;20025;-75
2023/02/11 07:56:32;;;;;;;135.75;64.78;;;51.20;2227.20;;;;;;5047724;28;19911;-75
2023/02/11 07:59:02;;;;;;;;;;;51.30;2227.20;;;;;;5058603;28;20029;-78
2023/02/11 08:01:28;;;;;;;109.25;50.95;;;51.40;2227.20;;;;;;5043373;28;20454;-78
2023/02/11 08:03:55;;;;;;;;;;;51.40;2227.20;;;;;;5035843;28;20084;-79
2023/02/11 08:06:22;;;;;;;83.07;38.45;;;51.50;2227.20;;;;;;5063195;28;19919;-78
2023/02/11 08:08:48;;;;;;;105.90;47.75;;;51.50;2227.20;;;;;;5046657;28;20031;-77
2023/02/11 08:11:17;;;;;;;97.13;46.70;;;51.60;2227.20;;;;;;5023420;28;20040;-77
2023/02/11 08:13:44;;;;;;;98.72;48.65;;;51.70;2227.20;;;;;;5039882;28;20033;-79
2023/02/11 08:16:21;;;;;;;106.88;52.10;;;51.80;2227.20;;;;;;5034707;28;20025;-77
2023/02/11 08:18:49;;;;;;;109.53;53.45;;;52.00;2227.20;;;;;;5038253;28;20052;-80
2023/02/11 08:21:16;;;;;;;106.95;49.60;;;52.10;2227.20;;;;;;5032953;28;20071;-78
2023/02/11 08:23:43;;;;;;;102.65;47.97;;;52.10;2227.20;;;;;;5043900;28;20052;-79
2023/02/11 08:26:15;;;;;;;74.05;34.95;;;76.80;2227.20;;;;;;5033738;28;20025;-78
2023/02/11 08:28:43;;;;;;;78.55;39.58;;;52.10;2227.20;;;;;;5045765;28;20054;-78
2023/02/11 08:31:13;;;;;;;76.80;38.47;;;76.90;2227.20;;;;;;5023875;28;20109;-78
2023/02/11 08:33:39;;;;;;;81.38;38.42;;;76.80;2227.20;;;;;;5033555;28;20141;-79
2023/02/11 08:36:09;;;;;;;63.63;32.20;;;52.10;2227.20;;;;;;5037271;28;20064;-79
2023/02/11 08:38:35;;;;;;;63.85;33.03;;;76.80;2227.20;;;;;;5036807;28;20503;-78
2023/02/11 08:41:00;;;;;;;;;;;76.80;2227.20;;;;;;5043619;28;20132;-77
2023/02/11 08:43:26;;;;;;;64.90;29.60;;;76.80;2227.20;;;;;;5039258;28;20003;-77
2023/02/11 08:45:52;;;;;;;;;;;76.80;2227.20;;;;;;5041587;28;20128;-77
2023/02/11 08:48:17;;;;;;;54.22;29.20;;;76.80;2227.20;;;;;;5034476;28;19911;-76
2023/02/11 08:50:43;;;;;;;;;;;76.90;2227.20;;;;;;5026169;28;20037;-76
2023/02/11 08:53:09;;;;;;;63.90;30.45;;;76.90;2227.20;;;;;;5036722;28;19905;-75
2023/02/11 08:55:35;;;;;;;61.50;31.80;;;76.80;2227.20;;;;;;5040536;28;20382;-75
2023/02/11 08:58:00;;;;;;;;;;;76.90;2227.20;;;;;;5030459;28;20026;-75
2023/02/11 09:00:26;;;;;;;60.50;30.73;;;76.90;2227.20;;;;;;5053865;28;20034;-75
2023/02/11 09:02:52;;;;;;;;;;;77.00;2227.20;;;;;;5026414;28;20018;-76
2023/02/11 09:05:18;;;;;;;72.65;33.72;;;77.10;2227.20;;;;;;5037492;28;19917;-75
2023/02/11 09:07:43;;;;;;;;;;;77.10;2227.20;;;;;;5040090;28;20044;-75
2023/02/11 09:10:09;;;;;;;67.88;34.30;;;77.20;2227.20;;;;;;5028954;28;19931;-78
2023/02/11 09:12:34;;;;;;;;;;;77.20;2227.20;;;;;;5040039;28;20037;-77
2023/02/11 09:15:00;;;;;;;70.25;32.83;;;77.30;2227.20;;;;;;5036666;28;20289;-79
2023/02/11 09:17:26;;;;;;;;;;;77.40;2227.20;;;;;;5044217;28;20097;-76
2023/02/11 09:19:51;;;;;;;65.65;31.08;;;77.30;2227.20;;;;;;5043018;28;19908;-84
2023/02/11 09:22:17;;;;;;;;;;;77.40;2227.20;;;;;;5040178;28;20060;-78
2023/02/11 09:24:43;;;;;;;61.42;30.60;;;77.50;2227.20;;;;;;5040498;28;20342;-80
2023/02/11 09:27:08;;;;;;;;;;;77.60;2227.20;;;;;;5041874;28;20017;-77
2023/02/11 09:29:34;;;;;;;71.43;33.45;;;77.70;2227.20;;;;;;5041704;28;20007;-76
2023/02/11 09:31:59;;;;;;;;;;;102.50;2227.20;;;;;;5044289;28;20066;-77
2023/02/11 09:34:25;;;;;;;69.85;34.10;;;102.60;2227.20;;;;;;5042648;28;19926;-75
2023/02/11 09:36:51;;;;;;;;;;;102.80;2227.20;;;;;;5044054;28;20052;-77
2023/02/11 09:39:19;;;;;;;65.90;33.63;;;102.90;2227.20;;;;;;5045392;28;20312;-80
2023/02/11 09:42:29;;;;;;;69.65;35.92;;;103.10;2227.20;;;;;;5044046;28;20057;-79
2023/02/11 09:44:56;;;;;;;71.95;36.38;;;103.20;2227.20;;;;;;4935828;29;20050;-77
2023/02/11 09:47:29;;;;;;;64.53;31.45;;;128.20;2252.80;;;;;;4945771;28;20043;-76
2023/02/11 09:50:03;;;;;;;55.83;30.13;;;128.40;2252.80;;;;;;4977014;28;20049;-76
2023/02/11 09:52:55;;;;;;;62.35;30.75;;;128.60;2252.80;;;;;;4953222;28;20500;-77
2023/02/11 09:55:29;;;;;;;56.25;28.95;;;128.90;2227.20;;;;;;4947709;28;20485;-78
2023/02/11 09:57:56;;;;;;;52.40;27.58;;;153.60;2176.00;;;;;;4977040;28;20043;-80
2023/02/11 10:00:57;;;;;;;56.17;27.88;;;153.80;2124.80;;;;;;4952595;28;20126;-80
2023/02/11 10:03:42;;;;;;;52.17;25.80;;;154.00;2099.20;;;;;;4909193;29;20040;-78
2023/02/11 10:06:26;;;;;;;51.08;26.45;;;154.20;2022.40;;;;;;4915414;29;20315;-75
2023/02/11 10:08:52;;;;;;;50.13;26.83;;;154.40;1971.20;;;;;;4914735;29;20044;-73
2023/02/11 10:11:17;;;;;;;;;;;154.50;1945.60;;;;;;4910352;29;20044;-75
2023/02/11 10:13:50;;;;;;;42.67;22.40;;;179.20;1894.40;;;;;;4912931;29;19911;-75
2023/02/11 10:16:47;;;;;;;47.70;24.00;;;179.40;1868.80;;;;;;4899886;29;20037;-75
2023/02/11 10:19:43;;;;;;;51.60;25.02;;;179.70;1843.20;;;;;;4911342;29;21103;-74
2023/02/11 10:22:21;;;;;;;48.72;25.73;;;179.90;1817.60;;;;;;4949374;28;20046;-74
2023/02/11 10:24:59;;;;;;;45.58;24.27;;;180.10;1792.00;;;;;;4991612;28;20035;-74
2023/02/11 10:27:31;;;;;;;47.65;25.42;;;204.80;1766.40;;;;;;4981502;28;20122;-74
2023/02/11 10:30:37;;;;;;;45.47;25.05;;;204.90;1740.80;;;;;;4986646;28;20396;-75
2023/02/11 10:33:33;;;;;;;46.78;24.05;;;205.20;1715.20;;;;;;4919378;29;20043;-74
2023/02/11 10:35:59;;;;;;;43.13;23.20;;;205.40;1689.60;;;;;;4932776;29;20039;-76
2023/02/11 10:38:25;;;;;;;;;;;205.50;1664.00;;;;;;4957814;28;20377;-76
2023/02/11 10:40:51;;;;;;;53.47;25.85;;;205.70;1638.40;;;;;;4986878;28;19971;-77
2023/02/11 10:43:17;;;;;;;;;;;230.40;1612.80;;;;;;4993069;28;20030;-75
2023/02/11 10:45:51;;;;;;;41.78;23.25;;;230.60;1612.80;;;;;;4984300;28;19924;-76
2023/02/11 10:48:39;;;;;;;40.05;21.50;;;230.70;1587.20;;;;;;4985897;28;20035;-75
2023/02/11 10:51:14;;;;;;;56.85;27.42;;;230.70;1561.60;;;;;;4985693;28;20038;-75
2023/02/11 10:53:39;;;;;;;45.05;23.85;;;230.80;1561.60;;;;;;4983528;28;20105;-74
2023/02/11 10:56:06;;;;;;;;;;;231.00;1536.00;;;;;;4965119;28;20122;-76
2023/02/11 10:58:52;;;;;;;42.10;22.55;;;230.90;1536.00;;;;;;4986458;28;19945;-74
2023/02/11 11:01:19;;;;;;;42.22;23.25;;;231.10;1536.00;;;;;;4983845;28;20387;-76
2023/02/11 11:03:48;;;;;;;42.55;23.60;;;231.20;1510.40;;;;;;4984555;28;20097;-74
2023/02/11 11:06:15;;;;;;;40.53;23.17;;;231.30;1484.80;;;;;;4977426;28;20500;-74
2023/02/11 11:08:47;;;;;;;42.03;24.48;;;231.30;1484.80;;;;;;4995242;28;20030;-76
2023/02/11 11:11:24;;;;;;;41.67;22.17;;;256.00;1484.80;;;;;;5054255;28;20028;-75
2023/02/11 11:13:52;;;;;;;47.47;25.23;;;256.20;1459.20;;;;;;5046402;28;20025;-75
2023/02/11 11:16:24;;;;;;;43.67;23.92;;;256.20;1459.20;;;;;;5029207;28;20025;-76
2023/02/11 11:19:14;;;;;;;51.45;25.85;;;256.40;1433.60;;;;;;5062568;28;20024;-75
2023/02/11 11:21:51;;;;;;;49.13;26.38;;;256.40;1433.60;;;;;;5044493;28;20091;-77
2023/02/11 11:24:33;;;;;;;41.85;24.27;;;256.80;1408.00;;;;;;5047293;28;20082;-75
2023/02/11 11:27:02;;;;;;;46.20;25.20;;;256.90;1408.00;;;;;;5060166;28;20025;-76
2023/02/11 11:29:48;;;;;;;43.70;24.45;;;256.80;1408.00;;;;;;5052375;28;20063;-76
2023/02/11 11:32:28;;;;;;;42.72;24.60;;;281.60;1408.00;;;;;;5048646;28;20025;-76
2023/02/11 11:34:59;;;;;;;45.92;25.45;;;281.70;1408.00;;;;;;5060297;28;20029;-76
2023/02/11 11:37:28;;;;;;;48.20;27.88;;;281.80;1408.00;;;;;;5058219;28;20102;-76
2023/02/11 11:40:09;;;;;;;46.67;26.00;;;281.90;1382.40;;;;;;5049904;28;20037;-76
2023/02/11 11:42:37;;;;;;;46.38;25.73;;;281.70;1382.40;;;;;;5068225;28;20028;-80
2023/02/11 11:45:23;;;;;;;45.65;26.15;;;281.80;1382.40;;;;;;5046337;28;20094;-77
2023/02/11 11:48:21;;;;;;;46.20;25.52;;;282.10;1382.40;;;;;;5042317;28;20024;-77
2023/02/11 11:51:00;;;;;;;43.25;23.83;;;282.20;1356.80;;;;;;5017208;28;20067;-76
2023/02/11 11:53:37;;;;;;;44.22;25.17;;;282.20;1331.20;;;;;;5063454;28;20028;-77
2023/02/11 11:56:10;;;;;;;44.75;25.10;;;282.20;1331.20;;;;;;5042549;28;20028;-76
2023/02/11 11:58:36;;;;;;;44.05;26.15;;;282.30;1331.20;;;;;;5041498;28;20029;-75
2023/02/11 12:01:32;;;;;;;48.58;26.55;;;282.50;1305.60;;;;;;5033125;28;20033;-76
2023/02/11 12:04:20;;;;;;;49.92;27.27;;;282.40;1305.60;;;;;;5040383;28;20032;-77
2023/02/11 12:07:03;;;;;;;43.17;24.80;;;282.30;1305.60;;;;;;5047569;28;20067;-80
2023/02/11 12:10:06;;;;;;;42.83;25.50;;;282.40;1305.60;;;;;;5060130;28;20033;-81
2023/02/11 12:12:39;;;;;;;52.47;28.35;;;282.20;1305.60;;;;;;5021741;28;20037;-77
2023/02/11 12:15:37;;;;;;;46.15;26.17;;;282.10;1331.20;;;;;;5021370;28;20102;-76
2023/02/11 12:18:10;;;;;;;47.40;26.45;;;282.20;1331.20;;;;;;4939433;28;20046;-77
2023/02/11 12:20:57;;;;;;;43.45;25.23;;;282.00;1331.20;;;;;;4956560;28;20031;-77
2023/02/11 12:23:32;;;;;;;;;;;281.90;1331.20;;;;;;4943813;28;20046;-78
2023/02/11 12:26:17;;;;;;;45.10;24.25;;;281.90;1331.20;;;;;;4940654;28;20430;-78
2023/02/11 12:28:52;;;;;;;40.88;23.75;;;281.90;1331.20;;;;;;4982509;28;20056;-77
2023/02/11 12:31:38;;;;;;;44.35;25.15;;;282.00;1331.20;;;;;;4978639;28;20136;-77
2023/02/11 12:34:17;;;;;;;45.03;18.13;;;281.90;1331.20;;;;;;4952857;28;20126;-77
2023/02/11 12:37:05;;;;;;;41.47;22.60;;;281.70;1331.20;;;;;;4941708;28;20476;-76
2023/02/11 12:39:55;;;;;;;40.05;23.75;;;281.70;1331.20;;;;;;4952220;28;20037;-76
2023/02/11 12:45:34;;;;;;;46.47;24.85;;;281.70;1356.80;;;;;;4962671;28;20046;-77
2023/02/11 12:48:17;;;;;;;47.50;24.60;;;281.70;1382.40;;;;;;4975852;28;20061;-78
2023/02/11 12:51:42;;;;;;;44.58;24.08;;;281.70;1356.80;;;;;;4963077;28;20026;-77
2023/02/11 12:54:16;;;;;;;44.17;23.48;;;281.90;1356.80;;;;;;4933059;28;20038;-77
2023/02/11 12:56:58;;;;;;;42.78;24.05;;;281.60;1356.80;;;;;;4998962;28;20126;-77